sensor_id;sensor_type;location;lat;lon;timestamp;pressure;altitude;pressure_sealevel;temperature;humidity
54329;BME280;40710;51.120;13.136;2023-12-28T00:02:17;99020.81;;;11.57;41.14
54329;BME280;40710;51.120;13.136;2023-12-28T00:04:42;99007.34;;;11.76;40.60
54329;BME280;40710;51.120;13.136;2023-12-28T00:07:06;99023.44;;;11.57;40.63
54329;BME280;40710;51.120;13.136;2023-12-28T00:09:31;99004.53;;;11.79;39.72
54329;BME280;40710;51.120;13.136;2023-12-28T00:11:55;99016.44;;;11.99;39.01
54329;BME280;40710;51.120;13.136;2023-12-28T00:14:20;99012.03;;;12.39;38.56
54329;BME280;40710;51.120;13.136;2023-12-28T00:16:44;99013.00;;;11.69;39.17
54329;BME280;40710;51.120;13.136;2023-12-28T00:19:09;99005.31;;;12.08;38.79
54329;BME280;40710;51.120;13.136;2023-12-28T00:21:34;99011.25;;;12.24;38.42
54329;BME280;40710;51.120;13.136;2023-12-28T00:23:58;99030.59;;;12.10;37.97
54329;BME280;40710;51.120;13.136;2023-12-28T00:26:23;99007.28;;;12.44;37.35
54329;BME280;40710;51.120;13.136;2023-12-28T00:28:48;99022.91;;;12.47;37.39
54329;BME280;40710;51.120;13.136;2023-12-28T00:31:13;99018.81;;;12.43;37.36
54329;BME280;40710;51.120;13.136;2023-12-28T00:33:37;99019.16;;;12.64;37.18
54329;BME280;40710;51.120;13.136;2023-12-28T00:36:02;99021.31;;;12.85;36.89
54329;BME280;40710;51.120;13.136;2023-12-28T00:38:26;99007.78;;;12.77;37.39
54329;BME280;40710;51.120;13.136;2023-12-28T00:40:51;99020.06;;;12.51;37.11
54329;BME280;40710;51.120;13.136;2023-12-28T00:43:15;99012.34;;;12.35;37.88
54329;BME280;40710;51.120;13.136;2023-12-28T00:45:40;99002.88;;;12.45;37.48
54329;BME280;40710;51.120;13.136;2023-12-28T00:48:06;99011.94;;;12.41;37.20
54329;BME280;40710;51.120;13.136;2023-12-28T00:50:31;99006.06;;;12.50;37.07
54329;BME280;40710;51.120;13.136;2023-12-28T00:52:56;98987.97;;;13.10;36.46
54329;BME280;40710;51.120;13.136;2023-12-28T00:55:21;99014.28;;;12.58;36.75
54329;BME280;40710;51.120;13.136;2023-12-28T00:57:45;99008.81;;;12.61;36.90
54329;BME280;40710;51.120;13.136;2023-12-28T01:00:10;99004.75;;;12.43;37.10
54329;BME280;40710;51.120;13.136;2023-12-28T01:02:35;98999.97;;;12.62;36.65
54329;BME280;40710;51.120;13.136;2023-12-28T01:04:59;99020.13;;;12.89;36.76
54329;BME280;40710;51.120;13.136;2023-12-28T01:07:24;99009.69;;;13.00;36.32
54329;BME280;40710;51.120;13.136;2023-12-28T01:09:48;99007.25;;;12.72;36.56
54329;BME280;40710;51.120;13.136;2023-12-28T01:12:13;98998.69;;;12.81;36.35
54329;BME280;40710;51.120;13.136;2023-12-28T01:14:37;99002.03;;;12.44;37.25
54329;BME280;40710;51.120;13.136;2023-12-28T01:17:02;98992.47;;;13.33;35.82
54329;BME280;40710;51.120;13.136;2023-12-28T01:19:26;98993.00;;;13.13;36.41
54329;BME280;40710;51.120;13.136;2023-12-28T01:21:51;99006.19;;;13.13;36.66
54329;BME280;40710;51.120;13.136;2023-12-28T01:24:16;98996.81;;;13.09;35.90
54329;BME280;40710;51.120;13.136;2023-12-28T01:26:40;99001.72;;;12.49;37.47
54329;BME280;40710;51.120;13.136;2023-12-28T01:29:05;99000.00;;;13.01;37.25
54329;BME280;40710;51.120;13.136;2023-12-28T01:31:29;98996.69;;;12.59;37.64
54329;BME280;40710;51.120;13.136;2023-12-28T01:33:54;98988.34;;;12.65;37.74
54329;BME280;40710;51.120;13.136;2023-12-28T01:36:19;98984.22;;;12.48;37.93
54329;BME280;40710;51.120;13.136;2023-12-28T01:38:44;98988.28;;;12.92;37.23
54329;BME280;40710;51.120;13.136;2023-12-28T01:41:09;98990.78;;;12.55;38.08
54329;BME280;40710;51.120;13.136;2023-12-28T01:43:34;98995.53;;;12.63;38.06
54329;BME280;40710;51.120;13.136;2023-12-28T01:45:58;98998.06;;;12.77;38.45
54329;BME280;40710;51.120;13.136;2023-12-28T01:48:23;98987.53;;;12.64;37.91
54329;BME280;40710;51.120;13.136;2023-12-28T01:50:48;98993.38;;;12.42;38.43
54329;BME280;40710;51.120;13.136;2023-12-28T01:53:14;98980.53;;;12.63;38.25
54329;BME280;40710;51.120;13.136;2023-12-28T01:55:38;98987.91;;;12.45;38.55
54329;BME280;40710;51.120;13.136;2023-12-28T01:58:03;98996.38;;;12.63;38.35
54329;BME280;40710;51.120;13.136;2023-12-28T02:00:27;98999.81;;;12.51;38.62
54329;BME280;40710;51.120;13.136;2023-12-28T02:02:53;98995.53;;;12.63;38.51
54329;BME280;40710;51.120;13.136;2023-12-28T02:05:19;99000.56;;;12.53;38.28
54329;BME280;40710;51.120;13.136;2023-12-28T02:07:43;99018.53;;;12.74;38.21
54329;BME280;40710;51.120;13.136;2023-12-28T02:10:08;98990.91;;;12.66;38.46
54329;BME280;40710;51.120;13.136;2023-12-28T02:12:33;99000.19;;;12.32;38.88
54329;BME280;40710;51.120;13.136;2023-12-28T02:14:58;99003.97;;;12.15;38.81
54329;BME280;40710;51.120;13.136;2023-12-28T02:20:00;99001.22;;;12.95;37.82
54329;BME280;40710;51.120;13.136;2023-12-28T02:22:26;98995.00;;;13.09;37.85
54329;BME280;40710;51.120;13.136;2023-12-28T02:25:04;99004.25;;;12.38;37.80
54329;BME280;40710;51.120;13.136;2023-12-28T02:27:30;98986.91;;;13.38;36.77
54329;BME280;40710;51.120;13.136;2023-12-28T02:29:55;98990.59;;;13.10;36.67
54329;BME280;40710;51.120;13.136;2023-12-28T02:32:32;98992.38;;;13.22;36.72
54329;BME280;40710;51.120;13.136;2023-12-28T02:35:09;99002.09;;;13.09;37.16
54329;BME280;40710;51.120;13.136;2023-12-28T02:37:38;99007.75;;;13.28;36.58
54329;BME280;40710;51.120;13.136;2023-12-28T02:40:03;99009.56;;;13.02;36.64
54329;BME280;40710;51.120;13.136;2023-12-28T02:42:28;99030.78;;;12.75;37.27
54329;BME280;40710;51.120;13.136;2023-12-28T02:44:53;99000.00;;;13.01;36.57
54329;BME280;40710;51.120;13.136;2023-12-28T02:47:17;99002.94;;;12.96;36.87
54329;BME280;40710;51.120;13.136;2023-12-28T02:49:42;98986.69;;;13.15;35.76
54329;BME280;40710;51.120;13.136;2023-12-28T02:52:06;99002.19;;;13.07;36.22
54329;BME280;40710;51.120;13.136;2023-12-28T02:54:31;98986.78;;;13.39;35.88
54329;BME280;40710;51.120;13.136;2023-12-28T02:56:55;98977.94;;;12.76;35.80
54329;BME280;40710;51.120;13.136;2023-12-28T02:59:20;98995.34;;;12.79;36.07
54329;BME280;40710;51.120;13.136;2023-12-28T03:01:45;98989.72;;;12.71;36.36
54329;BME280;40710;51.120;13.136;2023-12-28T03:04:09;98980.44;;;12.65;36.14
54329;BME280;40710;51.120;13.136;2023-12-28T03:06:34;98969.88;;;13.42;35.59
54329;BME280;40710;51.120;13.136;2023-12-28T03:08:59;98993.75;;;13.02;35.77
54329;BME280;40710;51.120;13.136;2023-12-28T03:11:24;98972.94;;;13.97;35.00
54329;BME280;40710;51.120;13.136;2023-12-28T03:13:48;99002.38;;;12.65;36.67
54329;BME280;40710;51.120;13.136;2023-12-28T03:16:13;98995.34;;;12.79;36.50
54329;BME280;40710;51.120;13.136;2023-12-28T03:18:38;98975.63;;;12.97;36.70
54329;BME280;40710;51.120;13.136;2023-12-28T03:21:02;99000.19;;;12.85;36.48
54329;BME280;40710;51.120;13.136;2023-12-28T03:23:27;98991.94;;;13.02;36.82
54329;BME280;40710;51.120;13.136;2023-12-28T03:25:51;98990.78;;;12.94;37.00
54329;BME280;40710;51.120;13.136;2023-12-28T03:28:16;98987.09;;;13.22;36.75
54329;BME280;40710;51.120;13.136;2023-12-28T03:30:41;98978.34;;;12.83;36.82
54329;BME280;40710;51.120;13.136;2023-12-28T03:33:05;98996.41;;;12.76;36.70
54329;BME280;40710;51.120;13.136;2023-12-28T03:35:30;99010.28;;;12.53;36.91
54329;BME280;40710;51.120;13.136;2023-12-28T03:37:54;98993.75;;;13.02;36.24
54329;BME280;40710;51.120;13.136;2023-12-28T03:40:19;98990.47;;;12.98;36.26
54329;BME280;40710;51.120;13.136;2023-12-28T03:42:43;99005.88;;;12.79;36.17
54329;BME280;40710;51.120;13.136;2023-12-28T03:45:08;98986.47;;;13.31;36.45
54329;BME280;40710;51.120;13.136;2023-12-28T03:47:33;98965.59;;;12.77;36.55
54329;BME280;40710;51.120;13.136;2023-12-28T03:49:58;98990.47;;;12.73;37.18
54329;BME280;40710;51.120;13.136;2023-12-28T03:52:24;99011.16;;;12.79;37.00
54329;BME280;40710;51.120;13.136;2023-12-28T03:54:50;98999.53;;;12.56;37.31
54329;BME280;40710;51.120;13.136;2023-12-28T03:57:14;98998.81;;;12.79;37.26
54329;BME280;40710;51.120;13.136;2023-12-28T03:59:40;98991.66;;;12.94;37.06
54329;BME280;40710;51.120;13.136;2023-12-28T04:02:04;99001.84;;;12.60;37.27
54329;BME280;40710;51.120;13.136;2023-12-28T04:04:29;98985.00;;;13.27;36.59
54329;BME280;40710;51.120;13.136;2023-12-28T04:06:54;98996.38;;;13.02;36.87
54329;BME280;40710;51.120;13.136;2023-12-28T04:09:18;98983.22;;;13.15;36.64
54329;BME280;40710;51.120;13.136;2023-12-28T04:11:43;98981.00;;;13.71;36.21
54329;BME280;40710;51.120;13.136;2023-12-28T04:14:08;98967.22;;;14.03;35.57
54329;BME280;40710;51.120;13.136;2023-12-28T04:16:33;98981.91;;;13.46;36.62
54329;BME280;40710;51.120;13.136;2023-12-28T04:18:57;98989.19;;;13.79;36.92
54329;BME280;40710;51.120;13.136;2023-12-28T04:21:22;98993.09;;;13.24;37.62
54329;BME280;40710;51.120;13.136;2023-12-28T04:23:46;98992.13;;;13.88;36.95
54329;BME280;40710;51.120;13.136;2023-12-28T04:26:11;99001.66;;;12.89;38.38
54329;BME280;40710;51.120;13.136;2023-12-28T04:28:35;99001.66;;;13.40;38.14
54329;BME280;40710;51.120;13.136;2023-12-28T04:31:04;98997.03;;;13.05;38.14
54329;BME280;40710;51.120;13.136;2023-12-28T04:33:29;98986.63;;;14.15;37.79
54329;BME280;40710;51.120;13.136;2023-12-28T04:35:53;98993.59;;;14.16;37.50
54329;BME280;40710;51.120;13.136;2023-12-28T04:38:18;98981.78;;;14.44;37.31
54329;BME280;40710;51.120;13.136;2023-12-28T04:40:43;98986.50;;;13.68;38.01
54329;BME280;40710;51.120;13.136;2023-12-28T04:43:07;98983.19;;;13.77;37.65
54329;BME280;40710;51.120;13.136;2023-12-28T04:45:32;99006.22;;;13.75;38.67
54329;BME280;40710;51.120;13.136;2023-12-28T04:47:56;99001.00;;;14.11;37.62
54329;BME280;40710;51.120;13.136;2023-12-28T04:50:21;99003.97;;;14.30;38.11
54329;BME280;40710;51.120;13.136;2023-12-28T04:52:45;99018.19;;;13.68;38.85
54329;BME280;40710;51.120;13.136;2023-12-28T04:55:10;99029.94;;;13.64;38.90
54329;BME280;40710;51.120;13.136;2023-12-28T04:57:34;99047.59;;;13.88;38.83
54329;BME280;40710;51.120;13.136;2023-12-28T04:59:59;99024.34;;;14.17;38.11
54329;BME280;40710;51.120;13.136;2023-12-28T05:02:23;99042.25;;;14.00;38.40
54329;BME280;40710;51.120;13.136;2023-12-28T05:04:48;99038.56;;;13.66;38.66
54329;BME280;40710;51.120;13.136;2023-12-28T05:07:12;99038.09;;;14.09;38.83
54329;BME280;40710;51.120;13.136;2023-12-28T05:09:37;99061.88;;;13.85;38.94
54329;BME280;40710;51.120;13.136;2023-12-28T05:12:02;99032.97;;;14.08;39.01
54329;BME280;40710;51.120;13.136;2023-12-28T05:14:26;99053.28;;;13.32;39.96
54329;BME280;40710;51.120;13.136;2023-12-28T05:16:51;99068.56;;;13.27;40.09
54329;BME280;40710;51.120;13.136;2023-12-28T05:19:16;99082.31;;;13.45;39.94
54329;BME280;40710;51.120;13.136;2023-12-28T05:21:40;99077.56;;;13.24;40.15
54329;BME280;40710;51.120;13.136;2023-12-28T05:24:05;99059.66;;;13.79;39.59
54329;BME280;40710;51.120;13.136;2023-12-28T05:26:30;99115.63;;;13.07;41.02
54329;BME280;40710;51.120;13.136;2023-12-28T05:28:54;99088.75;;;13.66;39.62
54329;BME280;40710;51.120;13.136;2023-12-28T05:31:19;99105.44;;;13.54;40.29
54329;BME280;40710;51.120;13.136;2023-12-28T05:33:43;99117.25;;;12.70;41.72
54329;BME280;40710;51.120;13.136;2023-12-28T05:36:08;99120.47;;;13.00;41.17
54329;BME280;40710;51.120;13.136;2023-12-28T05:38:32;99119.97;;;13.21;40.94
54329;BME280;40710;51.120;13.136;2023-12-28T05:40:58;99134.84;;;13.09;41.22
54329;BME280;40710;51.120;13.136;2023-12-28T05:43:22;99134.81;;;12.96;41.67
54329;BME280;40710;51.120;13.136;2023-12-28T05:45:47;99158.44;;;12.85;42.04
54329;BME280;40710;51.120;13.136;2023-12-28T05:48:11;99143.91;;;13.05;41.74
54329;BME280;40710;51.120;13.136;2023-12-28T05:50:36;99149.00;;;12.81;42.46
54329;BME280;40710;51.120;13.136;2023-12-28T05:53:00;99159.56;;;12.81;42.47
54329;BME280;40710;51.120;13.136;2023-12-28T05:55:25;99158.91;;;13.17;42.28
54329;BME280;40710;51.120;13.136;2023-12-28T05:57:49;99140.38;;;13.45;41.39
54329;BME280;40710;51.120;13.136;2023-12-28T06:00:14;99153.75;;;13.29;42.21
54329;BME280;40710;51.120;13.136;2023-12-28T06:02:39;99156.81;;;12.82;43.06
54329;BME280;40710;51.120;13.136;2023-12-28T06:05:03;99148.28;;;13.45;42.29
54329;BME280;40710;51.120;13.136;2023-12-28T06:07:28;99167.97;;;12.46;43.62
54329;BME280;40710;51.120;13.136;2023-12-28T06:09:53;99145.25;;;13.76;41.74
54329;BME280;40710;51.120;13.136;2023-12-28T06:12:17;99171.00;;;12.94;43.12
54329;BME280;40710;51.120;13.136;2023-12-28T06:14:42;99155.59;;;12.61;44.33
54329;BME280;40710;51.120;13.136;2023-12-28T06:17:06;99155.19;;;12.67;44.39
54329;BME280;40710;51.120;13.136;2023-12-28T06:19:31;99162.22;;;12.54;44.74
54329;BME280;40710;51.120;13.136;2023-12-28T06:21:56;99197.25;;;12.41;44.85
54329;BME280;40710;51.120;13.136;2023-12-28T06:24:22;99154.66;;;13.02;44.15
54329;BME280;40710;51.120;13.136;2023-12-28T06:26:47;99182.38;;;12.40;45.09
54329;BME280;40710;51.120;13.136;2023-12-28T06:29:11;99169.06;;;12.56;45.11
54329;BME280;40710;51.120;13.136;2023-12-28T06:31:36;99187.38;;;12.45;45.12
54329;BME280;40710;51.120;13.136;2023-12-28T06:34:05;99252.81;;;12.24;46.44
54329;BME280;40710;51.120;13.136;2023-12-28T06:36:30;99200.03;;;12.25;46.93
54329;BME280;40710;51.120;13.136;2023-12-28T06:38:55;99209.16;;;12.61;46.82
54329;BME280;40710;51.120;13.136;2023-12-28T06:41:19;99204.53;;;11.95;47.66
54329;BME280;40710;51.120;13.136;2023-12-28T06:43:44;99225.38;;;11.69;47.79
54329;BME280;40710;51.120;13.136;2023-12-28T06:46:08;99215.78;;;12.81;46.49
54329;BME280;40710;51.120;13.136;2023-12-28T06:48:33;99205.94;;;12.29;46.51
54329;BME280;40710;51.120;13.136;2023-12-28T06:50:57;99202.81;;;12.37;45.79
54329;BME280;40710;51.120;13.136;2023-12-28T06:53:22;99215.41;;;13.28;44.83
54329;BME280;40710;51.120;13.136;2023-12-28T06:55:46;99215.59;;;12.43;45.71
54329;BME280;40710;51.120;13.136;2023-12-28T06:58:11;99221.66;;;12.72;45.67
54329;BME280;40710;51.120;13.136;2023-12-28T07:00:35;99214.94;;;12.39;45.87
54329;BME280;40710;51.120;13.136;2023-12-28T07:03:00;99212.16;;;12.70;46.11
54329;BME280;40710;51.120;13.136;2023-12-28T07:05:25;99196.66;;;12.78;45.35
54329;BME280;40710;51.120;13.136;2023-12-28T07:07:49;99173.38;;;12.84;45.49
54329;BME280;40710;51.120;13.136;2023-12-28T07:10:14;99170.25;;;12.23;46.67
54329;BME280;40710;51.120;13.136;2023-12-28T07:12:38;99169.09;;;12.69;46.11
54329;BME280;40710;51.120;13.136;2023-12-28T07:15:03;99166.22;;;12.32;45.91
54329;BME280;40710;51.120;13.136;2023-12-28T07:17:28;99164.25;;;13.56;44.24
54329;BME280;40710;51.120;13.136;2023-12-28T07:19:52;99190.41;;;12.24;46.23
54329;BME280;40710;51.120;13.136;2023-12-28T07:22:17;99168.63;;;13.17;44.81
54329;BME280;40710;51.120;13.136;2023-12-28T07:24:41;99166.19;;;13.01;45.25
54329;BME280;40710;51.120;13.136;2023-12-28T07:27:06;99174.19;;;12.72;45.87
54329;BME280;40710;51.120;13.136;2023-12-28T07:29:30;99168.94;;;12.30;46.87
54329;BME280;40710;51.120;13.136;2023-12-28T07:31:55;99159.63;;;12.66;46.26
54329;BME280;40710;51.120;13.136;2023-12-28T07:34:19;99174.00;;;12.34;46.77
54329;BME280;40710;51.120;13.136;2023-12-28T07:36:44;99184.09;;;12.41;47.67
54329;BME280;40710;51.120;13.136;2023-12-28T07:39:10;99185.16;;;12.24;48.06
54329;BME280;40710;51.120;13.136;2023-12-28T07:41:35;99186.66;;;13.10;46.56
54329;BME280;40710;51.120;13.136;2023-12-28T07:43:59;99183.94;;;12.01;47.96
54329;BME280;40710;51.120;13.136;2023-12-28T07:46:24;99182.56;;;11.96;48.57
54329;BME280;40710;51.120;13.136;2023-12-28T07:48:48;99160.69;;;12.22;48.14
54329;BME280;40710;51.120;13.136;2023-12-28T07:51:13;99161.03;;;12.45;48.09
54329;BME280;40710;51.120;13.136;2023-12-28T07:53:38;99189.06;;;11.60;49.62
54329;BME280;40710;51.120;13.136;2023-12-28T07:56:02;99224.22;;;11.59;49.59
54329;BME280;40710;51.120;13.136;2023-12-28T07:58:28;99173.19;;;12.88;47.22
54329;BME280;40710;51.120;13.136;2023-12-28T08:00:53;99181.03;;;12.20;47.51
54329;BME280;40710;51.120;13.136;2023-12-28T08:03:17;99190.22;;;12.13;48.68
54329;BME280;40710;51.120;13.136;2023-12-28T08:05:42;99197.94;;;11.73;49.43
54329;BME280;40710;51.120;13.136;2023-12-28T08:08:06;99207.50;;;11.74;49.52
54329;BME280;40710;51.120;13.136;2023-12-28T08:10:31;99211.09;;;11.87;49.71
54329;BME280;40710;51.120;13.136;2023-12-28T08:12:55;99224.94;;;12.05;48.75
54329;BME280;40710;51.120;13.136;2023-12-28T08:15:20;99227.69;;;12.04;49.86
54329;BME280;40710;51.120;13.136;2023-12-28T08:17:45;99232.94;;;12.04;49.63
54329;BME280;40710;51.120;13.136;2023-12-28T08:20:09;99223.16;;;12.35;48.78
54329;BME280;40710;51.120;13.136;2023-12-28T08:22:34;99249.13;;;11.98;49.63
54329;BME280;40710;51.120;13.136;2023-12-28T08:24:58;99257.44;;;12.62;49.14
54329;BME280;40710;51.120;13.136;2023-12-28T08:27:23;99255.25;;;12.13;49.63
54329;BME280;40710;51.120;13.136;2023-12-28T08:29:48;99255.72;;;12.19;49.99
54329;BME280;40710;51.120;13.136;2023-12-28T08:32:12;99251.00;;;12.39;50.12
54329;BME280;40710;51.120;13.136;2023-12-28T08:34:37;99266.44;;;12.16;50.50
54329;BME280;40710;51.120;13.136;2023-12-28T08:37:01;99265.03;;;12.25;51.29
54329;BME280;40710;51.120;13.136;2023-12-28T08:39:26;99268.31;;;12.14;51.36
54329;BME280;40710;51.120;13.136;2023-12-28T08:41:50;99288.19;;;11.75;52.27
54329;BME280;40710;51.120;13.136;2023-12-28T08:44:15;99270.56;;;11.91;52.24
54329;BME280;40710;51.120;13.136;2023-12-28T08:46:39;99259.88;;;11.64;52.75
54329;BME280;40710;51.120;13.136;2023-12-28T08:49:04;99281.22;;;11.74;53.28
54329;BME280;40710;51.120;13.136;2023-12-28T08:51:28;99262.41;;;11.96;52.45
54329;BME280;40710;51.120;13.136;2023-12-28T08:53:53;99271.31;;;11.94;52.30
54329;BME280;40710;51.120;13.136;2023-12-28T08:56:20;99267.31;;;12.17;52.40
54329;BME280;40710;51.120;13.136;2023-12-28T08:58:45;99267.28;;;12.31;51.90
54329;BME280;40710;51.120;13.136;2023-12-28T09:01:17;99272.41;;;11.89;52.89
54329;BME280;40710;51.120;13.136;2023-12-28T09:03:42;99272.34;;;11.91;52.57
54329;BME280;40710;51.120;13.136;2023-12-28T09:06:06;99274.50;;;11.99;53.29
54329;BME280;40710;51.120;13.136;2023-12-28T09:08:32;99265.91;;;12.67;51.78
54329;BME280;40710;51.120;13.136;2023-12-28T09:10:56;99256.34;;;12.52;51.31
54329;BME280;40710;51.120;13.136;2023-12-28T09:13:21;99286.19;;;12.66;51.18
54329;BME280;40710;51.120;13.136;2023-12-28T09:15:45;99294.78;;;11.82;53.42
54329;BME280;40710;51.120;13.136;2023-12-28T09:18:10;99284.66;;;12.77;51.42
54329;BME280;40710;51.120;13.136;2023-12-28T09:20:34;99278.50;;;12.35;52.41
54329;BME280;40710;51.120;13.136;2023-12-28T09:22:59;99285.25;;;12.95;51.78
54329;BME280;40710;51.120;13.136;2023-12-28T09:25:24;99296.75;;;12.52;52.61
54329;BME280;40710;51.120;13.136;2023-12-28T09:27:49;99286.34;;;12.63;51.99
54329;BME280;40710;51.120;13.136;2023-12-28T09:30:13;99287.97;;;12.52;53.12
54329;BME280;40710;51.120;13.136;2023-12-28T09:32:38;99291.38;;;12.39;52.80
54329;BME280;40710;51.120;13.136;2023-12-28T09:35:03;99293.47;;;11.75;54.82
54329;BME280;40710;51.120;13.136;2023-12-28T09:37:27;99287.50;;;12.02;54.41
54329;BME280;40710;51.120;13.136;2023-12-28T09:39:52;99287.47;;;13.42;51.43
54329;BME280;40710;51.120;13.136;2023-12-28T09:42:29;99297.09;;;12.60;52.88
54329;BME280;40710;51.120;13.136;2023-12-28T09:44:56;99283.94;;;12.17;54.05
54329;BME280;40710;51.120;13.136;2023-12-28T09:47:21;99304.66;;;12.38;53.42
54329;BME280;40710;51.120;13.136;2023-12-28T09:49:47;99302.75;;;12.54;53.88
54329;BME280;40710;51.120;13.136;2023-12-28T09:52:11;99290.53;;;12.39;52.62
54329;BME280;40710;51.120;13.136;2023-12-28T09:54:36;99295.63;;;12.42;53.01
54329;BME280;40710;51.120;13.136;2023-12-28T09:57:00;99302.09;;;12.51;53.57
54329;BME280;40710;51.120;13.136;2023-12-28T09:59:26;99285.13;;;12.69;52.56
54329;BME280;40710;51.120;13.136;2023-12-28T10:01:54;99293.38;;;12.50;52.90
54329;BME280;40710;51.120;13.136;2023-12-28T10:04:19;99311.03;;;11.90;54.26
54329;BME280;40710;51.120;13.136;2023-12-28T10:06:44;99289.97;;;12.62;52.57
54329;BME280;40710;51.120;13.136;2023-12-28T10:09:08;99289.56;;;12.68;52.85
54329;BME280;40710;51.120;13.136;2023-12-28T10:11:34;99274.28;;;12.74;52.66
54329;BME280;40710;51.120;13.136;2023-12-28T10:13:58;99277.94;;;13.13;51.86
54329;BME280;40710;51.120;13.136;2023-12-28T10:16:23;99281.53;;;12.84;52.94
54329;BME280;40710;51.120;13.136;2023-12-28T10:18:48;99276.97;;;12.16;53.96
54329;BME280;40710;51.120;13.136;2023-12-28T10:21:12;99262.84;;;12.46;53.21
54329;BME280;40710;51.120;13.136;2023-12-28T10:23:38;99264.00;;;12.27;53.41
54329;BME280;40710;51.120;13.136;2023-12-28T10:26:04;99275.03;;;12.34;53.40
54329;BME280;40710;51.120;13.136;2023-12-28T10:28:34;99268.94;;;11.89;54.33
54329;BME280;40710;51.120;13.136;2023-12-28T10:30:59;99279.59;;;12.02;54.30
54329;BME280;40710;51.120;13.136;2023-12-28T10:33:23;99267.09;;;12.20;53.45
54329;BME280;40710;51.120;13.136;2023-12-28T10:35:50;99260.78;;;12.37;53.75
54329;BME280;40710;51.120;13.136;2023-12-28T10:38:16;99241.25;;;13.22;51.30
54329;BME280;40710;51.120;13.136;2023-12-28T10:40:43;99252.38;;;12.73;52.44
54329;BME280;40710;51.120;13.136;2023-12-28T10:43:11;99249.47;;;12.49;53.07
54329;BME280;40710;51.120;13.136;2023-12-28T10:45:39;99244.63;;;12.14;53.83
54329;BME280;40710;51.120;13.136;2023-12-28T10:48:06;99249.28;;;11.80;54.87
54329;BME280;40710;51.120;13.136;2023-12-28T10:50:42;99258.84;;;12.82;52.23
54329;BME280;40710;51.120;13.136;2023-12-28T10:53:15;99231.25;;;13.00;51.81
54329;BME280;40710;51.120;13.136;2023-12-28T10:56:05;99241.34;;;12.94;52.13
54329;BME280;40710;51.120;13.136;2023-12-28T11:01:40;99228.81;;;12.70;51.67
54329;BME280;40710;51.120;13.136;2023-12-28T11:04:42;99229.53;;;13.14;51.75
54329;BME280;40710;51.120;13.136;2023-12-28T11:07:15;99241.16;;;13.24;51.77
54329;BME280;40710;51.120;13.136;2023-12-28T11:09:42;99232.91;;;13.43;50.45
54329;BME280;40710;51.120;13.136;2023-12-28T11:12:07;99236.22;;;12.78;52.38
54329;BME280;40710;51.120;13.136;2023-12-28T11:14:34;99234.16;;;12.27;53.40
54329;BME280;40710;51.120;13.136;2023-12-28T11:16:59;99247.63;;;12.22;53.30
54329;BME280;40710;51.120;13.136;2023-12-28T11:19:28;99237.19;;;12.77;51.53
54329;BME280;40710;51.120;13.136;2023-12-28T11:21:55;99233.00;;;13.14;50.92
54329;BME280;40710;51.120;13.136;2023-12-28T11:24:21;99218.53;;;13.60;50.70
54329;BME280;40710;51.120;13.136;2023-12-28T11:26:52;99206.72;;;13.53;49.42
54329;BME280;40710;51.120;13.136;2023-12-28T11:29:18;99226.59;;;13.84;49.03
54329;BME280;40710;51.120;13.136;2023-12-28T11:31:43;99207.88;;;13.09;50.81
54329;BME280;40710;51.120;13.136;2023-12-28T11:34:13;99250.66;;;14.31;48.12
54329;BME280;40710;51.120;13.136;2023-12-28T11:36:47;99232.97;;;14.81;47.33
54329;BME280;40710;51.120;13.136;2023-12-28T11:39:20;99246.94;;;13.56;49.39
54329;BME280;40710;51.120;13.136;2023-12-28T11:41:50;99253.84;;;14.36;48.60
54329;BME280;40710;51.120;13.136;2023-12-28T11:44:15;99231.28;;;15.28;46.44
54329;BME280;40710;51.120;13.136;2023-12-28T11:46:41;99236.75;;;14.90;46.77
54329;BME280;40710;51.120;13.136;2023-12-28T11:49:07;99235.53;;;15.07;46.20
54329;BME280;40710;51.120;13.136;2023-12-28T11:51:37;99229.66;;;15.97;44.56
54329;BME280;40710;51.120;13.136;2023-12-28T11:54:03;99261.06;;;15.43;46.06
54329;BME280;40710;51.120;13.136;2023-12-28T11:56:28;99238.56;;;15.38;46.08
54329;BME280;40710;51.120;13.136;2023-12-28T11:58:52;99251.88;;;15.60;46.08
54329;BME280;40710;51.120;13.136;2023-12-28T12:01:17;99224.34;;;16.64;43.28
54329;BME280;40710;51.120;13.136;2023-12-28T12:03:41;99225.69;;;15.80;45.20
54329;BME280;40710;51.120;13.136;2023-12-28T12:06:06;99209.66;;;16.26;44.72
54329;BME280;40710;51.120;13.136;2023-12-28T12:08:31;99208.97;;;16.91;43.46
54329;BME280;40710;51.120;13.136;2023-12-28T12:11:06;99210.50;;;16.38;45.00
54329;BME280;40710;51.120;13.136;2023-12-28T12:13:31;99220.63;;;15.41;46.46
54329;BME280;40710;51.120;13.136;2023-12-28T12:15:56;99203.94;;;15.63;45.89
54329;BME280;40710;51.120;13.136;2023-12-28T12:18:21;99189.50;;;16.58;44.55
54329;BME280;40710;51.120;13.136;2023-12-28T12:20:45;99195.81;;;15.42;46.75
54329;BME280;40710;51.120;13.136;2023-12-28T12:23:10;99194.22;;;15.86;45.66
54329;BME280;40710;51.120;13.136;2023-12-28T12:25:37;99223.78;;;14.87;47.20
54329;BME280;40710;51.120;13.136;2023-12-28T12:28:02;99198.72;;;16.31;45.19
54329;BME280;40710;51.120;13.136;2023-12-28T12:30:28;99201.09;;;16.45;44.99
54329;BME280;40710;51.120;13.136;2023-12-28T12:32:52;99207.50;;;17.30;43.87
54329;BME280;40710;51.120;13.136;2023-12-28T12:35:17;99215.03;;;15.68;46.07
54329;BME280;40710;51.120;13.136;2023-12-28T12:37:43;99210.50;;;16.50;45.19
54329;BME280;40710;51.120;13.136;2023-12-28T12:40:09;99225.75;;;16.80;44.32
54329;BME280;40710;51.120;13.136;2023-12-28T12:42:34;99208.81;;;16.49;44.83
54329;BME280;40710;51.120;13.136;2023-12-28T12:44:59;99205.72;;;17.19;43.86
54329;BME280;40710;51.120;13.136;2023-12-28T12:47:23;99216.13;;;16.56;44.87